createdAt,value
2018-12-14T00:00:06.749Z,17.42
2018-12-14T00:02:13.311Z,23.15
2018-12-14T00:04:17.911Z,20.17
2018-12-14T00:06:25.968Z,21.68
2018-12-14T00:08:30.582Z,21.65
2018-12-14T00:10:35.365Z,22.75
2018-12-14T00:12:40.048Z,20.72
2018-12-14T00:14:43.073Z,19.90
2018-12-14T00:16:47.755Z,18.48
2018-12-14T00:20:56.495Z,22.73
2018-12-14T00:23:04.314Z,20.25
2018-12-14T00:25:09.639Z,22.52
2018-12-14T00:27:21.855Z,25.05
2018-12-14T00:29:26.554Z,19.80
2018-12-14T00:31:31.449Z,21.57
2018-12-14T00:33:36.178Z,19.75
2018-12-14T00:35:41.550Z,21.05
2018-12-14T00:37:48.926Z,23.02
2018-12-14T00:39:56.565Z,22.45
2018-12-14T00:42:01.503Z,21.20
2018-12-14T00:44:06.202Z,23.25
2018-12-14T00:46:11.137Z,21.50
2018-12-14T00:48:18.879Z,21.33
2018-12-14T00:50:23.872Z,21.27
2018-12-14T00:52:31.575Z,21.50
2018-12-14T00:54:39.239Z,18.37
2018-12-14T00:56:44.220Z,20.37
2018-12-14T00:58:52.072Z,20.90
2018-12-14T01:00:59.692Z,21.62
2018-12-14T01:03:07.543Z,24.10
2018-12-14T01:05:12.563Z,23.45
2018-12-14T01:07:17.272Z,21.20
2018-12-14T01:09:22.463Z,26.27
2018-12-14T01:11:29.906Z,24.43
2018-12-14T01:13:35.270Z,21.35
2018-12-14T01:15:39.901Z,26.97
2018-12-14T01:17:47.266Z,20.25
2018-12-14T01:19:52.027Z,23.15
2018-12-14T01:21:57.554Z,25.02
2018-12-14T01:24:05.723Z,27.87
2018-12-14T01:26:10.511Z,29.72
2018-12-14T01:28:18.470Z,33.58
2018-12-14T01:30:23.675Z,27.82
2018-12-14T01:32:31.515Z,36.77
2018-12-14T01:34:43.583Z,24.12
2018-12-14T01:36:48.627Z,35.60
2018-12-14T01:38:56.679Z,30.68
2018-12-14T01:41:04.838Z,22.55
2018-12-14T01:43:12.546Z,23.07
2018-12-14T01:45:18.040Z,19.27
2018-12-14T01:47:25.596Z,22.75
2018-12-14T01:49:30.683Z,19.10
2018-12-14T01:51:35.505Z,23.38
2018-12-14T01:53:40.276Z,18.40
2018-12-14T01:55:47.979Z,25.82
2018-12-14T01:57:53.130Z,22.95
2018-12-14T02:00:00.456Z,19.05
2018-12-14T02:02:05.835Z,25.68
2018-12-14T02:04:13.739Z,22.52
2018-12-14T02:06:18.634Z,24.52
2018-12-14T02:08:26.315Z,26.45
2018-12-14T02:10:31.395Z,22.58
2018-12-14T02:12:36.163Z,22.93
2018-12-14T02:14:44.306Z,24.87
2018-12-14T02:16:48.958Z,22.05
2018-12-14T02:18:56.724Z,28.12
2018-12-14T02:23:07.767Z,21.62
2018-12-14T02:25:12.572Z,23.47
2018-12-14T02:27:20.283Z,23.15
2018-12-14T02:29:28.577Z,27.32
2018-12-14T02:31:36.509Z,24.25
2018-12-14T02:33:44.332Z,23.83
2018-12-14T02:35:49.355Z,29.27
2018-12-14T02:37:57.326Z,25.60
2018-12-14T02:40:04.814Z,23.07
2018-12-14T02:42:09.426Z,22.55
2018-12-14T02:44:14.209Z,20.43
2018-12-14T02:46:21.980Z,20.90
2018-12-14T02:48:29.528Z,23.45
2018-12-14T02:50:37.252Z,24.25
2018-12-14T02:52:44.940Z,28.02
2018-12-14T02:54:52.661Z,22.13
2018-12-14T02:56:57.918Z,26.68
2018-12-14T02:59:02.779Z,24.40
2018-12-14T03:01:07.636Z,29.10
2018-12-14T03:03:15.269Z,25.80
2018-12-14T03:05:23.087Z,22.30
2018-12-14T03:07:30.824Z,34.45
2018-12-14T03:09:36.113Z,26.57
2018-12-14T03:11:44.176Z,24.43
2018-12-14T03:13:52.067Z,23.50
2018-12-14T03:16:01.921Z,28.32
2018-12-14T03:18:06.750Z,34.03
2018-12-14T03:20:11.567Z,25.92
2018-12-14T03:22:16.459Z,29.02
2018-12-14T03:24:23.904Z,28.98
2018-12-14T03:26:29.092Z,28.32
2018-12-14T03:28:36.809Z,23.65
2018-12-14T03:30:44.817Z,26.05
2018-12-14T03:32:49.755Z,24.80
2018-12-14T03:34:54.336Z,26.12
2018-12-14T03:37:02.221Z,23.18
2018-12-14T03:39:15.934Z,24.67
2018-12-14T03:41:23.505Z,23.65
2018-12-14T03:43:28.589Z,25.55
2018-12-14T03:45:36.332Z,27.10
2018-12-14T03:47:39.046Z,30.25
2018-12-14T03:49:46.862Z,23.95
2018-12-14T03:51:52.206Z,28.80
2018-12-14T03:53:59.595Z,29.42
2018-12-14T03:56:07.914Z,26.62
2018-12-14T03:58:15.696Z,23.80
2018-12-14T04:00:30.612Z,30.43
2018-12-14T04:02:35.826Z,30.17
2018-12-14T04:04:43.408Z,29.12
2018-12-14T04:06:51.243Z,26.25
2018-12-14T04:08:56.353Z,27.05
2018-12-14T04:11:04.524Z,27.52
2018-12-14T04:13:12.252Z,28.10
2018-12-14T04:15:20.373Z,23.62
2018-12-14T04:17:28.371Z,28.77
2018-12-14T04:19:36.395Z,27.22
2018-12-14T04:21:44.456Z,28.30
2018-12-14T04:23:52.767Z,31.95
2018-12-14T04:26:00.489Z,25.27
2018-12-14T04:28:08.508Z,24.07
2018-12-14T04:30:13.724Z,28.80
2018-12-14T04:32:18.753Z,32.88
2018-12-14T04:34:26.886Z,27.77
2018-12-14T04:36:34.784Z,29.32
2018-12-14T04:38:37.472Z,32.75
2018-12-14T04:40:45.257Z,30.95
2018-12-14T04:42:53.670Z,26.37
2018-12-14T04:44:58.303Z,25.40
2018-12-14T04:47:03.473Z,29.05
2018-12-14T04:49:10.877Z,24.85
2018-12-14T04:51:18.641Z,22.40
2018-12-14T04:53:26.647Z,25.65
2018-12-14T04:55:31.909Z,21.73
2018-12-14T04:57:39.870Z,24.55
2018-12-14T04:59:44.683Z,25.17
2018-12-14T05:01:52.309Z,27.77
2018-12-14T05:04:00.324Z,26.12
2018-12-14T05:06:08.565Z,29.65
2018-12-14T05:08:16.407Z,26.87
2018-12-14T05:10:24.010Z,21.25
2018-12-14T05:12:28.759Z,29.12
2018-12-14T05:14:36.632Z,25.92
2018-12-14T05:16:45.390Z,27.60
2018-12-14T05:18:50.350Z,25.50
2018-12-14T05:20:58.249Z,28.52
2018-12-14T05:23:05.981Z,30.30
2018-12-14T05:25:14.055Z,28.65
2018-12-14T05:27:22.140Z,27.75
2018-12-14T05:31:33.781Z,26.57
2018-12-14T05:33:38.861Z,23.87
2018-12-14T05:35:46.282Z,27.77
2018-12-14T05:37:53.984Z,25.52
2018-12-14T05:39:58.932Z,33.78
2018-12-14T05:42:06.627Z,24.50
2018-12-14T05:44:14.371Z,26.05
2018-12-14T05:46:19.276Z,29.87
2018-12-14T05:48:26.997Z,31.75
2018-12-14T05:50:32.068Z,30.12
2018-12-14T05:52:36.688Z,24.23
2018-12-14T05:54:39.961Z,24.80
2018-12-14T05:56:44.589Z,25.97
2018-12-14T05:58:52.995Z,29.30
2018-12-14T06:00:57.967Z,30.70
2018-12-14T06:03:00.904Z,28.60
2018-12-14T06:05:08.997Z,25.32
2018-12-14T06:07:17.208Z,30.90
2018-12-14T06:09:22.062Z,29.48
2018-12-14T06:11:27.018Z,27.22
2018-12-14T06:13:31.514Z,23.90
2018-12-14T06:15:39.326Z,28.20
2018-12-14T06:17:47.136Z,23.55
2018-12-14T06:19:51.976Z,28.98
2018-12-14T06:21:59.761Z,32.00
2018-12-14T06:24:07.713Z,27.67
2018-12-14T06:26:12.744Z,27.13
2018-12-14T06:28:20.512Z,32.30
2018-12-14T06:30:28.552Z,25.77
2018-12-14T06:32:36.688Z,28.20
2018-12-14T06:34:39.438Z,28.70
2018-12-14T06:36:47.243Z,24.77
2018-12-14T06:38:54.940Z,26.77
2018-12-14T06:40:59.692Z,24.55
2018-12-14T06:43:02.852Z,26.48
2018-12-14T06:45:11.070Z,23.65
2018-12-14T06:47:14.525Z,23.18
2018-12-14T06:49:19.352Z,26.62
2018-12-14T06:51:27.864Z,25.05
2018-12-14T06:53:32.456Z,28.38
2018-12-14T06:55:40.426Z,25.97
2018-12-14T06:57:48.098Z,29.77
2018-12-14T06:59:52.853Z,29.27
2018-12-14T07:01:57.948Z,32.15
2018-12-14T07:04:00.820Z,27.58
2018-12-14T07:06:05.568Z,24.82
2018-12-14T07:08:10.623Z,28.23
2018-12-14T07:10:18.496Z,30.10
2018-12-14T07:12:30.284Z,29.80
2018-12-14T07:14:33.377Z,29.20
2018-12-14T07:16:41.268Z,26.70
2018-12-14T07:18:49.172Z,30.85
2018-12-14T07:20:57.340Z,34.30
2018-12-14T07:23:05.008Z,29.90
2018-12-14T07:25:09.975Z,30.32
2018-12-14T07:27:17.611Z,29.72
2018-12-14T07:29:22.756Z,28.80
2018-12-14T07:31:27.592Z,34.00
2018-12-14T07:33:35.540Z,27.82
2018-12-14T07:35:43.725Z,28.92
2018-12-14T07:37:48.732Z,29.65
2018-12-14T07:39:53.651Z,31.68
2018-12-14T07:42:01.563Z,26.90
2018-12-14T07:44:04.417Z,30.00
2018-12-14T07:46:12.488Z,34.15
2018-12-14T07:48:17.485Z,31.62
2018-12-14T07:50:25.164Z,29.82
2018-12-14T07:52:28.025Z,29.92
2018-12-14T07:54:32.719Z,33.73
2018-12-14T07:56:40.472Z,28.17
2018-12-14T07:58:48.625Z,36.25
2018-12-14T08:00:53.269Z,30.62
2018-12-14T08:02:59.038Z,28.25
2018-12-14T08:05:04.581Z,34.65
2018-12-14T08:07:09.937Z,31.25
2018-12-14T08:09:17.617Z,25.55
2018-12-14T08:11:22.356Z,29.55
2018-12-14T08:13:34.838Z,31.37
2018-12-14T08:15:40.288Z,29.72
2018-12-14T08:17:48.280Z,34.40
2018-12-14T08:19:53.162Z,30.43
2018-12-14T08:21:58.967Z,29.42
2018-12-14T08:24:02.410Z,31.37
2018-12-14T08:26:15.928Z,35.75
2018-12-14T08:28:20.976Z,31.07
2018-12-14T08:30:25.964Z,31.50
2018-12-14T08:32:31.813Z,30.62
2018-12-14T08:34:37.367Z,27.87
2018-12-14T08:38:47.125Z,34.30
2018-12-14T08:40:55.575Z,32.70
2018-12-14T08:43:03.417Z,31.52
2018-12-14T08:45:08.955Z,27.73
2018-12-14T08:47:17.150Z,33.05
2018-12-14T08:49:22.049Z,29.50
2018-12-14T08:51:26.838Z,28.92
2018-12-14T08:53:32.064Z,42.43
2018-12-14T08:55:40.684Z,31.48
2018-12-14T08:57:48.724Z,37.50
2018-12-14T08:59:51.786Z,34.67
2018-12-14T09:01:56.440Z,36.08
2018-12-14T09:04:04.287Z,34.30
2018-12-14T09:06:14.155Z,35.13
2018-12-14T09:08:19.326Z,38.73
2018-12-14T09:10:27.212Z,32.80
2018-12-14T09:12:38.923Z,34.18
2018-12-14T09:14:43.937Z,31.80
2018-12-14T09:16:58.304Z,34.95
2018-12-14T09:19:06.566Z,42.80
2018-12-14T09:21:11.798Z,35.38
2018-12-14T09:23:20.160Z,31.33
2018-12-14T09:25:28.140Z,32.90
2018-12-14T09:27:31.164Z,32.85
2018-12-14T09:29:36.260Z,36.85
2018-12-14T09:31:41.130Z,34.78
2018-12-14T09:33:46.613Z,39.70
2018-12-14T09:35:51.341Z,35.58
2018-12-14T09:37:56.151Z,33.40
2018-12-14T09:44:11.348Z,31.23
2018-12-14T09:50:26.142Z,35.33
2018-12-14T09:52:30.850Z,35.13
2018-12-14T09:54:35.800Z,35.83
2018-12-14T09:56:40.687Z,34.63
2018-12-14T09:58:48.241Z,41.00
2018-12-14T10:00:56.280Z,32.13
2018-12-14T10:03:01.625Z,34.85
2018-12-14T10:05:09.530Z,35.05
2018-12-14T10:07:14.582Z,41.95
2018-12-14T10:09:19.348Z,124.15
2018-12-14T10:11:27.112Z,109.32
2018-12-14T10:13:35.060Z,52.40
2018-12-14T10:15:42.647Z,56.73
2018-12-14T10:17:45.702Z,140.85
2018-12-14T10:19:48.940Z,61.60
2018-12-14T10:21:53.571Z,47.78
2018-12-14T10:23:58.473Z,39.08
2018-12-14T10:26:03.300Z,83.70
2018-12-14T10:28:10.885Z,36.80
2018-12-14T10:30:16.329Z,33.78
2018-12-14T10:32:24.312Z,65.20
2018-12-14T10:34:29.097Z,77.87
2018-12-14T10:36:33.957Z,34.03
2018-12-14T10:38:38.789Z,39.83
2018-12-14T10:40:43.550Z,77.97
2018-12-14T10:42:51.089Z,68.85
2018-12-14T10:44:58.952Z,45.70
2018-12-14T10:47:06.700Z,36.98
2018-12-14T10:51:14.749Z,34.67
2018-12-14T10:53:19.322Z,33.05
2018-12-14T10:55:23.939Z,40.70
2018-12-14T10:57:31.692Z,32.45
2018-12-14T10:59:39.148Z,37.45
2018-12-14T11:01:51.577Z,38.38
2018-12-14T11:03:59.756Z,31.42
2018-12-14T11:06:02.900Z,26.35
2018-12-14T11:08:08.041Z,30.97
2018-12-14T11:10:13.832Z,46.30
2018-12-14T11:12:18.669Z,36.03
2018-12-14T11:14:23.710Z,32.65
2018-12-14T11:16:31.241Z,35.52
2018-12-14T11:18:35.980Z,40.78
2018-12-14T11:20:41.094Z,62.48
2018-12-14T11:22:50.568Z,37.15
2018-12-14T11:24:55.405Z,30.23
2018-12-14T11:27:00.616Z,29.30
2018-12-14T11:29:05.334Z,37.00
2018-12-14T11:31:10.748Z,26.62
2018-12-14T11:33:18.064Z,37.05
2018-12-14T11:35:22.896Z,51.28
2018-12-14T11:37:24.342Z,38.98
2018-12-14T11:39:29.268Z,96.05
2018-12-14T11:41:36.912Z,57.03
2018-12-14T11:43:44.819Z,34.00
2018-12-14T11:45:49.845Z,34.70
2018-12-14T11:47:54.861Z,66.42
2018-12-14T11:52:06.821Z,33.30
2018-12-14T11:54:14.616Z,28.83
2018-12-14T11:56:19.868Z,51.50
2018-12-14T11:58:24.750Z,40.65
2018-12-14T12:00:29.917Z,43.02
2018-12-14T12:02:34.722Z,40.70
2018-12-14T12:04:42.292Z,87.42
2018-12-14T12:06:50.237Z,45.70
2018-12-14T12:08:53.343Z,34.10
2018-12-14T12:11:00.780Z,36.42
2018-12-14T12:13:06.047Z,38.08
2018-12-14T12:15:10.499Z,30.20
2018-12-14T12:17:15.292Z,29.52
2018-12-14T12:19:23.161Z,29.50
2018-12-14T12:21:28.664Z,29.77
2018-12-14T12:24:01.088Z,34.30
2018-12-14T12:26:15.353Z,31.73
2018-12-14T12:28:18.234Z,33.40
2018-12-14T12:30:26.073Z,30.40
2018-12-14T12:32:33.420Z,29.42
2018-12-14T12:34:40.848Z,32.33
2018-12-14T12:36:45.652Z,31.20
2018-12-14T12:38:50.753Z,31.37
2018-12-14T12:40:55.267Z,32.05
2018-12-14T12:42:59.936Z,32.83
2018-12-14T12:45:08.277Z,27.37
2018-12-14T12:47:10.988Z,34.98
2018-12-14T12:49:15.747Z,37.88
2018-12-14T12:53:27.019Z,28.75
2018-12-14T12:55:29.937Z,33.85
2018-12-14T12:57:35.020Z,35.98
2018-12-14T12:59:38.052Z,29.50
2018-12-14T13:01:53.232Z,30.62
2018-12-14T13:04:06.949Z,42.70
2018-12-14T13:06:11.589Z,33.15
2018-12-14T13:08:19.186Z,33.10
2018-12-14T13:10:24.248Z,30.55
2018-12-14T13:12:31.844Z,31.35
2018-12-14T13:14:41.354Z,26.82
2018-12-14T13:16:46.449Z,38.95
2018-12-14T13:18:51.301Z,32.77
2018-12-14T13:20:56.121Z,30.80
2018-12-14T13:23:00.959Z,39.95
2018-12-14T13:25:06.178Z,63.30
2018-12-14T13:27:13.504Z,41.25
2018-12-14T13:29:21.369Z,32.93
2018-12-14T13:31:24.633Z,35.73
2018-12-14T13:33:32.472Z,30.30
2018-12-14T13:35:37.548Z,36.42
2018-12-14T13:37:42.138Z,33.15
2018-12-14T13:39:46.988Z,32.38
2018-12-14T13:41:58.839Z,37.28
2018-12-14T13:44:03.758Z,30.90
2018-12-14T13:46:08.588Z,37.78
2018-12-14T13:48:13.555Z,31.75
2018-12-14T13:50:21.194Z,36.70
2018-12-14T13:54:29.858Z,36.30
2018-12-14T13:56:34.608Z,34.00
2018-12-14T13:58:39.952Z,30.02
2018-12-14T14:00:44.547Z,33.45
2018-12-14T14:02:49.834Z,36.13
2018-12-14T14:04:57.941Z,32.35
2018-12-14T14:07:05.817Z,30.55
2018-12-14T14:09:13.885Z,41.18
2018-12-14T14:11:18.950Z,31.77
2018-12-14T14:13:23.987Z,30.02
2018-12-14T14:15:31.651Z,32.25
2018-12-14T14:17:36.945Z,36.25
2018-12-14T14:19:40.624Z,31.05
2018-12-14T14:21:49.204Z,32.33
2018-12-14T14:23:54.221Z,31.55
2018-12-14T14:25:59.164Z,33.67
2018-12-14T14:28:07.540Z,32.38
2018-12-14T14:30:12.381Z,40.78
2018-12-14T14:32:20.164Z,41.73
2018-12-14T14:34:25.000Z,71.53
2018-12-14T14:36:30.665Z,101.07
2018-12-14T14:38:35.446Z,110.42
2018-12-14T14:40:43.157Z,94.97
2018-12-14T14:42:48.771Z,124.62
2018-12-14T14:44:59.610Z,87.60
2018-12-14T14:47:00.780Z,61.00
2018-12-14T14:49:05.503Z,66.55
2018-12-14T14:51:13.674Z,58.15
2018-12-14T14:53:21.403Z,67.27
2018-12-14T14:55:26.301Z,124.55
2018-12-14T14:57:32.044Z,91.70
2018-12-14T14:59:35.330Z,79.22
2018-12-14T15:01:40.341Z,66.62
2018-12-14T15:03:45.369Z,72.40
2018-12-14T15:05:49.414Z,72.42
2018-12-14T15:07:55.104Z,53.80
2018-12-14T15:10:04.034Z,36.20
2018-12-14T15:12:09.069Z,63.02
2018-12-14T15:14:13.856Z,61.50
2018-12-14T15:16:18.695Z,67.17
2018-12-14T15:18:26.601Z,76.47
2018-12-14T15:20:31.434Z,91.72
2018-12-14T15:22:37.037Z,64.45
2018-12-14T15:24:48.959Z,49.73
2018-12-14T15:26:54.008Z,47.05
2018-12-14T15:28:58.818Z,40.10
2018-12-14T15:31:03.004Z,43.68
2018-12-14T15:33:08.732Z,35.25
2018-12-14T15:35:13.624Z,38.45
2018-12-14T15:37:19.418Z,168.45
2018-12-14T15:39:38.356Z,91.75
2018-12-14T15:41:46.256Z,44.03
2018-12-14T15:43:52.050Z,43.78
2018-12-14T15:46:00.352Z,40.80
2018-12-14T15:48:15.521Z,45.08
2018-12-14T15:50:24.197Z,36.42
2018-12-14T15:52:28.033Z,42.40
2018-12-14T15:54:31.463Z,43.80
2018-12-14T15:56:36.340Z,42.33
2018-12-14T15:58:39.933Z,43.73
2018-12-14T16:00:48.563Z,40.90
2018-12-14T16:02:50.272Z,38.28
2018-12-14T16:05:00.483Z,46.85
2018-12-14T16:09:43.670Z,41.58
2018-12-14T16:11:49.392Z,44.40
2018-12-14T16:13:58.223Z,36.33
2018-12-14T16:16:04.021Z,43.30
2018-12-14T16:18:09.278Z,39.98
2018-12-14T16:20:11.088Z,40.70
2018-12-14T16:22:25.697Z,44.42
2018-12-14T16:24:27.316Z,31.37
2018-12-14T16:26:30.565Z,46.50
2018-12-14T16:28:38.916Z,38.48
2018-12-14T16:30:44.433Z,42.48
2018-12-14T16:32:49.202Z,32.70
2018-12-14T16:34:57.200Z,36.95
2018-12-14T16:37:02.502Z,36.42
2018-12-14T16:39:07.561Z,41.90
2018-12-14T16:41:12.737Z,37.73
2018-12-14T16:43:20.605Z,40.92
2018-12-14T16:45:39.218Z,45.38
2018-12-14T16:47:43.905Z,43.48
2018-12-14T16:49:49.485Z,44.67
2018-12-14T16:51:54.312Z,47.00
2018-12-14T16:54:04.515Z,156.75
2018-12-14T16:56:13.028Z,50.08
2018-12-14T16:58:22.990Z,40.00
2018-12-14T17:00:31.672Z,38.63
2018-12-14T17:02:40.366Z,37.50
2018-12-14T17:04:48.306Z,45.80
2018-12-14T17:06:56.288Z,45.23
2018-12-14T17:09:05.195Z,42.38
2018-12-14T17:11:14.883Z,39.58
2018-12-14T17:13:17.897Z,43.08
2018-12-14T17:15:22.784Z,43.17
2018-12-14T17:17:30.803Z,45.38
2018-12-14T17:19:42.728Z,45.35
2018-12-14T17:21:50.461Z,39.35
2018-12-14T17:23:58.161Z,52.13
2018-12-14T17:26:06.168Z,56.33
2018-12-14T17:28:13.851Z,48.73
2018-12-14T17:30:21.683Z,38.90
2018-12-14T17:32:29.426Z,41.10
2018-12-14T17:34:37.177Z,44.80
2018-12-14T17:36:40.302Z,43.63
2018-12-14T17:38:45.448Z,43.78
2018-12-14T17:40:53.032Z,49.60
2018-12-14T17:43:01.397Z,37.70
2018-12-14T17:45:06.380Z,43.38
2018-12-14T17:47:18.204Z,41.75
2018-12-14T17:49:26.320Z,37.98
2018-12-14T17:51:35.186Z,38.98
2018-12-14T17:53:43.104Z,41.68
2018-12-14T18:02:09.695Z,39.83
2018-12-14T18:06:22.804Z,42.05
2018-12-14T18:08:30.638Z,48.28
2018-12-14T18:10:35.618Z,40.20
2018-12-14T18:12:40.644Z,38.53
2018-12-14T18:14:52.945Z,41.48
2018-12-14T18:16:57.743Z,43.58
2018-12-14T18:19:03.369Z,40.15
2018-12-14T18:21:06.963Z,45.80
2018-12-14T18:23:11.601Z,38.85
2018-12-14T18:25:17.331Z,43.48
2018-12-14T18:27:24.812Z,38.17
2018-12-14T18:29:32.703Z,39.78
2018-12-14T18:34:08.846Z,36.63
2018-12-14T18:36:10.565Z,41.48
2018-12-14T18:38:14.115Z,40.05
2018-12-14T18:40:47.244Z,40.67
2018-12-14T18:42:48.741Z,42.13
2018-12-14T18:44:49.965Z,42.40
2018-12-14T18:46:51.284Z,46.80
2018-12-14T18:49:04.152Z,39.05
2018-12-14T18:51:05.610Z,47.85
2018-12-14T18:53:24.438Z,47.20
2018-12-14T18:55:26.963Z,39.65
2018-12-14T18:57:40.462Z,41.92
2018-12-14T19:02:22.476Z,35.05
2018-12-14T19:07:28.767Z,39.15
2018-12-14T19:09:36.889Z,39.92
2018-12-14T19:11:41.354Z,45.98
2018-12-14T19:13:50.941Z,40.10
2018-12-14T19:16:23.396Z,38.95
2018-12-14T19:18:31.549Z,43.87
2018-12-14T19:20:45.392Z,39.15
2018-12-14T19:22:49.903Z,40.50
2018-12-14T19:24:52.634Z,39.30
2018-12-14T19:26:57.484Z,37.13
2018-12-14T19:29:04.857Z,40.80
2018-12-14T19:31:12.637Z,45.38
2018-12-14T19:33:20.513Z,40.70
2018-12-14T19:35:25.204Z,38.83
2018-12-14T19:37:34.776Z,39.45
2018-12-14T19:39:40.040Z,46.50
2018-12-14T19:41:45.251Z,43.90
2018-12-14T19:43:50.472Z,38.30
2018-12-14T19:45:58.163Z,33.75
2018-12-14T19:48:02.824Z,40.55
2018-12-14T19:50:07.924Z,37.75
2018-12-14T19:52:12.817Z,42.27
2018-12-14T19:54:22.759Z,41.18
2018-12-14T19:56:35.108Z,41.08
2018-12-14T19:58:43.423Z,37.33
2018-12-14T20:00:48.348Z,36.05
2018-12-14T20:02:53.126Z,36.88
2018-12-14T20:05:01.858Z,38.80
2018-12-14T20:07:07.880Z,31.85
2018-12-14T20:09:11.213Z,45.85
2018-12-14T20:11:18.889Z,42.45
2018-12-14T20:13:25.925Z,43.63
2018-12-14T20:15:30.936Z,40.25
2018-12-14T20:17:38.617Z,34.92
2018-12-14T20:19:43.516Z,44.20
2018-12-14T20:21:48.410Z,41.18
2018-12-14T20:23:56.075Z,41.88
2018-12-14T20:26:05.921Z,44.25
2018-12-14T20:28:09.835Z,36.00
2018-12-14T20:30:21.645Z,38.88
2018-12-14T20:32:26.793Z,38.83
2018-12-14T20:34:34.397Z,38.70
2018-12-14T20:36:40.695Z,43.10
2018-12-14T20:39:08.034Z,36.42
2018-12-14T20:41:27.872Z,45.20
2018-12-14T20:43:33.111Z,45.47
2018-12-14T20:45:37.624Z,44.35
2018-12-14T20:47:41.712Z,43.13
2018-12-14T20:49:50.129Z,49.93
2018-12-14T20:51:57.477Z,44.65
2018-12-14T20:54:02.586Z,45.88
2018-12-14T20:56:11.354Z,38.35
2018-12-14T20:58:19.077Z,45.10
2018-12-14T21:00:21.958Z,43.33
2018-12-14T21:02:23.420Z,44.00
2018-12-14T21:04:29.131Z,42.15
2018-12-14T21:06:38.889Z,44.50
2018-12-14T21:08:44.232Z,44.98
2018-12-14T21:10:56.053Z,41.33
2018-12-14T21:13:03.059Z,41.42
2018-12-14T21:15:07.845Z,45.85
2018-12-14T21:17:13.333Z,40.20
2018-12-14T21:21:53.653Z,47.88
2018-12-14T21:23:58.337Z,43.33
2018-12-14T21:26:05.757Z,38.67
2018-12-14T21:28:11.513Z,49.55
2018-12-14T21:30:14.341Z,46.85
2018-12-14T21:32:22.115Z,44.63
2018-12-14T21:34:31.688Z,45.43
2018-12-14T21:36:36.796Z,44.03
2018-12-14T21:38:44.968Z,45.38
2018-12-14T21:40:47.861Z,44.80
2018-12-14T21:42:53.508Z,47.58
2018-12-14T21:45:12.023Z,42.97
2018-12-14T21:47:30.955Z,46.15
2018-12-14T21:49:38.880Z,44.67
2018-12-14T21:51:43.818Z,43.02
2018-12-14T21:53:56.756Z,42.25
2018-12-14T21:56:01.526Z,45.63
2018-12-14T21:58:09.697Z,45.45
2018-12-14T22:00:17.561Z,49.70
2018-12-14T22:02:24.255Z,45.25
2018-12-14T22:04:28.931Z,45.03
2018-12-14T22:06:36.692Z,46.40
2018-12-14T22:08:44.283Z,43.98
2018-12-14T22:10:51.902Z,45.10
2018-12-14T22:12:59.562Z,48.48
2018-12-14T22:15:12.163Z,45.17
2018-12-14T22:17:18.953Z,52.17
2018-12-14T22:19:29.006Z,44.73
2018-12-14T22:21:36.772Z,48.83
2018-12-14T22:23:41.288Z,40.17
2018-12-14T22:25:45.889Z,41.20
2018-12-14T22:27:52.112Z,36.10
2018-12-14T22:30:08.192Z,40.58
2018-12-14T22:32:21.255Z,43.70
2018-12-14T22:34:28.234Z,44.38
2018-12-14T22:36:36.108Z,38.30
2018-12-14T22:38:41.002Z,37.25
2018-12-14T22:40:46.899Z,43.55
2018-12-14T22:42:51.917Z,41.28
2018-12-14T22:44:59.844Z,37.25
2018-12-14T22:47:04.742Z,39.53
2018-12-14T22:49:09.742Z,40.60
2018-12-14T22:51:14.416Z,46.77
2018-12-14T22:53:26.327Z,42.65
2018-12-14T22:55:34.045Z,38.88
2018-12-14T22:57:37.012Z,41.50
2018-12-14T22:59:41.694Z,49.00
2018-12-14T23:01:47.721Z,42.70
2018-12-14T23:03:52.084Z,41.00
2018-12-14T23:06:05.919Z,45.52
2018-12-14T23:08:11.147Z,40.52
2018-12-14T23:10:18.533Z,42.73
2018-12-14T23:14:27.294Z,45.35
2018-12-14T23:16:35.094Z,47.53
2018-12-14T23:18:40.063Z,50.17
2018-12-14T23:20:44.857Z,51.25
2018-12-14T23:22:49.716Z,48.08
2018-12-14T23:25:01.532Z,46.15
2018-12-14T23:27:06.054Z,39.98
2018-12-14T23:29:09.228Z,51.33
2018-12-14T23:31:15.198Z,38.60
2018-12-14T23:33:20.173Z,42.48
2018-12-14T23:35:27.748Z,46.85
2018-12-14T23:37:40.831Z,42.65
2018-12-14T23:39:45.674Z,43.10
2018-12-14T23:41:50.482Z,49.58
2018-12-14T23:44:20.582Z,49.67
2018-12-14T23:46:32.853Z,46.55
2018-12-14T23:48:37.687Z,40.50
2018-12-14T23:50:42.337Z,48.35
2018-12-14T23:52:55.174Z,43.55
2018-12-14T23:54:58.316Z,49.80
2018-12-14T23:57:03.474Z,47.70
2018-12-14T23:59:19.611Z,41.13
